sensor_id;sensor_type;location;lat;lon;timestamp;pressure;altitude;pressure_sealevel;temperature;humidity
40574;BME280;26283;49.020;8.644;2023-04-06T00:00:42;99549.72;;;11.63;46.66
40574;BME280;26283;49.020;8.644;2023-04-06T00:03:08;99548.06;;;11.62;46.64
40574;BME280;26283;49.020;8.644;2023-04-06T00:05:33;99549.13;;;11.61;46.67
40574;BME280;26283;49.020;8.644;2023-04-06T00:07:58;99535.84;;;11.60;46.60
40574;BME280;26283;49.020;8.644;2023-04-06T00:10:25;99535.00;;;11.59;46.56
40574;BME280;26283;49.020;8.644;2023-04-06T00:12:50;99538.75;;;11.58;46.58
40574;BME280;26283;49.020;8.644;2023-04-06T00:15:15;99529.00;;;11.57;46.57
40574;BME280;26283;49.020;8.644;2023-04-06T00:17:41;99528.19;;;11.57;46.59
40574;BME280;26283;49.020;8.644;2023-04-06T00:20:07;99526.75;;;11.54;46.66
40574;BME280;26283;49.020;8.644;2023-04-06T00:22:33;99520.50;;;11.54;46.61
40574;BME280;26283;49.020;8.644;2023-04-06T00:24:58;99526.94;;;11.53;46.63
40574;BME280;26283;49.020;8.644;2023-04-06T00:27:24;99521.78;;;11.51;46.63
40574;BME280;26283;49.020;8.644;2023-04-06T00:29:50;99519.06;;;11.51;46.60
40574;BME280;26283;49.020;8.644;2023-04-06T00:32:15;99520.94;;;11.51;46.68
40574;BME280;26283;49.020;8.644;2023-04-06T00:34:41;99515.75;;;11.49;46.66
40574;BME280;26283;49.020;8.644;2023-04-06T00:37:06;99518.47;;;11.49;46.69
40574;BME280;26283;49.020;8.644;2023-04-06T00:39:32;99515.97;;;11.48;46.79
40574;BME280;26283;49.020;8.644;2023-04-06T00:41:57;99518.94;;;11.46;46.73
40574;BME280;26283;49.020;8.644;2023-04-06T00:44:23;99513.53;;;11.46;46.72
40574;BME280;26283;49.020;8.644;2023-04-06T00:46:49;99511.88;;;11.45;46.78
40574;BME280;26283;49.020;8.644;2023-04-06T00:49:14;99497.78;;;11.43;46.79
40574;BME280;26283;49.020;8.644;2023-04-06T00:51:40;99498.81;;;11.42;46.68
40574;BME280;26283;49.020;8.644;2023-04-06T00:54:05;99498.00;;;11.42;46.74
40574;BME280;26283;49.020;8.644;2023-04-06T00:56:31;99506.09;;;11.42;46.69
40574;BME280;26283;49.020;8.644;2023-04-06T00:58:57;99500.91;;;11.40;46.74
40574;BME280;26283;49.020;8.644;2023-04-06T01:01:23;99503.81;;;11.39;46.80
40574;BME280;26283;49.020;8.644;2023-04-06T01:03:49;99496.75;;;11.38;46.82
40574;BME280;26283;49.020;8.644;2023-04-06T01:06:15;99488.88;;;11.36;46.82
40574;BME280;26283;49.020;8.644;2023-04-06T01:08:41;99490.75;;;11.36;46.76
40574;BME280;26283;49.020;8.644;2023-04-06T01:11:07;99493.44;;;11.36;46.80
40574;BME280;26283;49.020;8.644;2023-04-06T01:13:32;99489.94;;;11.35;46.84
40574;BME280;26283;49.020;8.644;2023-04-06T01:15:58;99486.62;;;11.33;46.84
40574;BME280;26283;49.020;8.644;2023-04-06T01:18:27;99489.31;;;11.33;46.80
40574;BME280;26283;49.020;8.644;2023-04-06T01:20:53;99498.44;;;11.32;46.84
40574;BME280;26283;49.020;8.644;2023-04-06T01:23:18;99495.12;;;11.30;46.79
40574;BME280;26283;49.020;8.644;2023-04-06T01:25:44;99496.19;;;11.29;46.79
40574;BME280;26283;49.020;8.644;2023-04-06T01:28:09;99486.44;;;11.28;46.83
40574;BME280;26283;49.020;8.644;2023-04-06T01:30:35;99492.88;;;11.27;46.82
40574;BME280;26283;49.020;8.644;2023-04-06T01:33:00;99483.13;;;11.26;46.89
40574;BME280;26283;49.020;8.644;2023-04-06T01:35:27;99486.91;;;11.25;46.92
40574;BME280;26283;49.020;8.644;2023-04-06T01:37:52;99486.06;;;11.24;47.01
40574;BME280;26283;49.020;8.644;2023-04-06T01:40:18;99477.16;;;11.24;46.96
40574;BME280;26283;49.020;8.644;2023-04-06T01:42:43;99482.75;;;11.22;46.95
40574;BME280;26283;49.020;8.644;2023-04-06T01:45:09;99483.81;;;11.21;46.96
40574;BME280;26283;49.020;8.644;2023-04-06T01:47:35;99484.03;;;11.20;46.93
40574;BME280;26283;49.020;8.644;2023-04-06T01:50:00;99479.66;;;11.19;47.00
40574;BME280;26283;49.020;8.644;2023-04-06T01:52:26;99476.97;;;11.19;47.02
40574;BME280;26283;49.020;8.644;2023-04-06T01:54:51;99475.31;;;11.18;46.97
40574;BME280;26283;49.020;8.644;2023-04-06T01:57:17;99475.53;;;11.16;47.01
40574;BME280;26283;49.020;8.644;2023-04-06T01:59:42;99473.03;;;11.15;47.05
40574;BME280;26283;49.020;8.644;2023-04-06T02:02:08;99473.03;;;11.15;46.98
40574;BME280;26283;49.020;8.644;2023-04-06T02:04:33;99474.09;;;11.14;47.06
40574;BME280;26283;49.020;8.644;2023-04-06T02:06:59;99475.13;;;11.13;47.03
40574;BME280;26283;49.020;8.644;2023-04-06T02:09:24;99477.81;;;11.13;47.04
40574;BME280;26283;49.020;8.644;2023-04-06T02:11:50;99476.16;;;11.12;47.10
40574;BME280;26283;49.020;8.644;2023-04-06T02:14:15;99479.91;;;11.11;47.13
40574;BME280;26283;49.020;8.644;2023-04-06T02:16:41;99482.81;;;11.09;47.08
40574;BME280;26283;49.020;8.644;2023-04-06T02:19:06;99472.25;;;11.08;47.08
40574;BME280;26283;49.020;8.644;2023-04-06T02:21:31;99473.28;;;11.07;47.10
40574;BME280;26283;49.020;8.644;2023-04-06T02:23:57;99471.62;;;11.06;47.14
40574;BME280;26283;49.020;8.644;2023-04-06T02:26:22;99472.69;;;11.05;47.15
40574;BME280;26283;49.020;8.644;2023-04-06T02:28:48;99471.88;;;11.04;47.14
40574;BME280;26283;49.020;8.644;2023-04-06T02:31:14;99468.56;;;11.02;47.16
40574;BME280;26283;49.020;8.644;2023-04-06T02:33:40;99462.34;;;11.02;47.30
40574;BME280;26283;49.020;8.644;2023-04-06T02:36:06;99465.03;;;11.02;47.31
40574;BME280;26283;49.020;8.644;2023-04-06T02:38:31;99470.66;;;11.00;47.35
40574;BME280;26283;49.020;8.644;2023-04-06T02:40:57;99469.81;;;10.99;47.34
40574;BME280;26283;49.020;8.644;2023-04-06T02:43:22;99464.66;;;10.98;47.33
40574;BME280;26283;49.020;8.644;2023-04-06T02:45:48;99466.53;;;10.97;47.36
40574;BME280;26283;49.020;8.644;2023-04-06T02:48:13;99465.69;;;10.97;47.40
40574;BME280;26283;49.020;8.644;2023-04-06T02:50:39;99462.38;;;10.95;47.37
40574;BME280;26283;49.020;8.644;2023-04-06T02:53:04;99466.13;;;10.94;47.42
40574;BME280;26283;49.020;8.644;2023-04-06T02:55:29;99465.28;;;10.93;47.45
40574;BME280;26283;49.020;8.644;2023-04-06T02:57:55;99462.81;;;10.92;47.42
40574;BME280;26283;49.020;8.644;2023-04-06T03:00:20;99457.41;;;10.92;47.37
40574;BME280;26283;49.020;8.644;2023-04-06T03:02:46;99455.75;;;10.91;47.48
40574;BME280;26283;49.020;8.644;2023-04-06T03:05:11;99451.41;;;10.90;47.44
40574;BME280;26283;49.020;8.644;2023-04-06T03:07:37;99458.66;;;10.89;47.48
40574;BME280;26283;49.020;8.644;2023-04-06T03:10:02;99449.97;;;10.87;47.47
40574;BME280;26283;49.020;8.644;2023-04-06T03:12:28;99448.31;;;10.86;47.62
40574;BME280;26283;49.020;8.644;2023-04-06T03:14:53;99452.87;;;10.86;47.65
40574;BME280;26283;49.020;8.644;2023-04-06T03:17:19;99451.22;;;10.85;47.60
40574;BME280;26283;49.020;8.644;2023-04-06T03:19:44;99450.41;;;10.84;47.58
40574;BME280;26283;49.020;8.644;2023-04-06T03:22:10;99454.13;;;10.83;47.63
40574;BME280;26283;49.020;8.644;2023-04-06T03:24:35;99452.50;;;10.82;47.62
40574;BME280;26283;49.020;8.644;2023-04-06T03:27:01;99457.91;;;10.82;47.63
40574;BME280;26283;49.020;8.644;2023-04-06T03:29:26;99458.94;;;10.81;47.66
40574;BME280;26283;49.020;8.644;2023-04-06T03:31:52;99461.84;;;10.80;47.64
40574;BME280;26283;49.020;8.644;2023-04-06T03:34:17;99464.75;;;10.78;47.76
40574;BME280;26283;49.020;8.644;2023-04-06T03:36:43;99464.75;;;10.78;47.71
40574;BME280;26283;49.020;8.644;2023-04-06T03:39:08;99463.09;;;10.77;47.68
40574;BME280;26283;49.020;8.644;2023-04-06T03:41:33;99464.16;;;10.76;47.72
40574;BME280;26283;49.020;8.644;2023-04-06T03:43:59;99465.19;;;10.75;47.67
40574;BME280;26283;49.020;8.644;2023-04-06T03:46:24;99467.87;;;10.75;47.67
40574;BME280;26283;49.020;8.644;2023-04-06T03:48:50;99462.69;;;10.74;47.76
40574;BME280;26283;49.020;8.644;2023-04-06T03:51:16;99461.88;;;10.73;47.74
40574;BME280;26283;49.020;8.644;2023-04-06T03:53:41;99462.91;;;10.72;47.78
40574;BME280;26283;49.020;8.644;2023-04-06T03:56:06;99461.25;;;10.71;47.75
40574;BME280;26283;49.020;8.644;2023-04-06T03:58:32;99466.84;;;10.70;47.71
40574;BME280;26283;49.020;8.644;2023-04-06T04:00:57;99468.72;;;10.69;47.71
40574;BME280;26283;49.020;8.644;2023-04-06T04:03:23;99473.28;;;10.69;47.75
40574;BME280;26283;49.020;8.644;2023-04-06T04:05:49;99465.41;;;10.67;47.80
40574;BME280;26283;49.020;8.644;2023-04-06T04:08:15;99462.94;;;10.65;47.89
40574;BME280;26283;49.020;8.644;2023-04-06T04:10:41;99470.19;;;10.65;47.86
40574;BME280;26283;49.020;8.644;2023-04-06T04:13:06;99465.84;;;10.64;47.85
40574;BME280;26283;49.020;8.644;2023-04-06T04:15:31;99472.28;;;10.63;47.89
40574;BME280;26283;49.020;8.644;2023-04-06T04:17:57;99469.56;;;10.63;47.88
40574;BME280;26283;49.020;8.644;2023-04-06T04:20:22;99474.34;;;10.61;47.86
40574;BME280;26283;49.020;8.644;2023-04-06T04:22:48;99471.66;;;10.61;47.94
40574;BME280;26283;49.020;8.644;2023-04-06T04:25:13;99480.81;;;10.60;47.95
40574;BME280;26283;49.020;8.644;2023-04-06T04:27:39;99479.16;;;10.59;47.97
40574;BME280;26283;49.020;8.644;2023-04-06T04:30:05;99483.72;;;10.58;47.98
40574;BME280;26283;49.020;8.644;2023-04-06T04:32:31;99481.22;;;10.57;48.08
40574;BME280;26283;49.020;8.644;2023-04-06T04:34:56;99486.62;;;10.57;48.01
40574;BME280;26283;49.020;8.644;2023-04-06T04:37:22;99482.28;;;10.56;48.00
40574;BME280;26283;49.020;8.644;2023-04-06T04:39:47;99481.22;;;10.57;47.92
40574;BME280;26283;49.020;8.644;2023-04-06T04:42:13;99483.53;;;10.53;47.92
40574;BME280;26283;49.020;8.644;2023-04-06T04:44:38;99488.09;;;10.53;47.90
40574;BME280;26283;49.020;8.644;2023-04-06T04:47:04;99476.69;;;10.51;47.86
40574;BME280;26283;49.020;8.644;2023-04-06T04:49:30;99486.62;;;10.50;47.97
40574;BME280;26283;49.020;8.644;2023-04-06T04:51:55;99479.59;;;10.49;47.95
40574;BME280;26283;49.020;8.644;2023-04-06T04:54:21;99480.41;;;10.50;47.95
40574;BME280;26283;49.020;8.644;2023-04-06T04:56:46;99490.56;;;10.48;47.94
40574;BME280;26283;49.020;8.644;2023-04-06T04:59:12;99485.19;;;10.48;47.97
40574;BME280;26283;49.020;8.644;2023-04-06T05:01:37;99488.09;;;10.46;48.03
40574;BME280;26283;49.020;8.644;2023-04-06T05:04:02;99493.47;;;10.46;48.03
40574;BME280;26283;49.020;8.644;2023-04-06T05:06:28;99494.53;;;10.45;48.01
40574;BME280;26283;49.020;8.644;2023-04-06T05:08:53;99495.56;;;10.44;48.06
40574;BME280;26283;49.020;8.644;2023-04-06T05:11:19;99509.03;;;10.44;48.19
40574;BME280;26283;49.020;8.644;2023-04-06T05:13:45;99506.53;;;10.43;48.17
40574;BME280;26283;49.020;8.644;2023-04-06T05:16:10;99503.22;;;10.41;48.17
40574;BME280;26283;49.020;8.644;2023-04-06T05:18:36;99505.94;;;10.41;48.17
40574;BME280;26283;49.020;8.644;2023-04-06T05:21:01;99512.34;;;10.40;48.16
40574;BME280;26283;49.020;8.644;2023-04-06T05:23:27;99508.03;;;10.39;48.13
40574;BME280;26283;49.020;8.644;2023-04-06T05:25:52;99509.91;;;10.38;48.04
40574;BME280;26283;49.020;8.644;2023-04-06T05:28:18;99506.37;;;10.38;48.16
40574;BME280;26283;49.020;8.644;2023-04-06T05:30:44;99510.09;;;10.37;48.14
40574;BME280;26283;49.020;8.644;2023-04-06T05:33:11;99511.16;;;10.36;48.19
40574;BME280;26283;49.020;8.644;2023-04-06T05:35:36;99519.44;;;10.34;48.17
40574;BME280;26283;49.020;8.644;2023-04-06T05:38:02;99516.75;;;10.34;48.20
40574;BME280;26283;49.020;8.644;2023-04-06T05:40:27;99522.34;;;10.33;48.10
40574;BME280;26283;49.020;8.644;2023-04-06T05:42:53;99526.06;;;10.32;48.21
40574;BME280;26283;49.020;8.644;2023-04-06T05:45:18;99522.75;;;10.29;48.31
40574;BME280;26283;49.020;8.644;2023-04-06T05:47:44;99528.97;;;10.30;48.30
40574;BME280;26283;49.020;8.644;2023-04-06T05:50:11;99531.03;;;10.28;48.30
40574;BME280;26283;49.020;8.644;2023-04-06T05:52:36;99529.37;;;10.27;48.38
40574;BME280;26283;49.020;8.644;2023-04-06T05:55:03;99536.44;;;10.28;48.42
40574;BME280;26283;49.020;8.644;2023-04-06T05:57:28;99535.59;;;10.27;48.46
40574;BME280;26283;49.020;8.644;2023-04-06T05:59:54;99534.16;;;10.25;48.55
40574;BME280;26283;49.020;8.644;2023-04-06T06:02:20;99536.84;;;10.25;48.50
40574;BME280;26283;49.020;8.644;2023-04-06T06:04:46;99534.16;;;10.25;48.65
40574;BME280;26283;49.020;8.644;2023-04-06T06:07:11;99537.88;;;10.24;48.68
40574;BME280;26283;49.020;8.644;2023-04-06T06:09:37;99535.19;;;10.24;48.74
40574;BME280;26283;49.020;8.644;2023-04-06T06:12:02;99538.09;;;10.22;48.75
40574;BME280;26283;49.020;8.644;2023-04-06T06:14:27;99541.81;;;10.21;48.84
40574;BME280;26283;49.020;8.644;2023-04-06T06:16:56;99541.81;;;10.21;48.82
40574;BME280;26283;49.020;8.644;2023-04-06T06:19:21;99541.00;;;10.21;48.88
40574;BME280;26283;49.020;8.644;2023-04-06T06:21:47;99545.53;;;10.20;48.90
40574;BME280;26283;49.020;8.644;2023-04-06T06:24:12;99542.03;;;10.20;48.88
40574;BME280;26283;49.020;8.644;2023-04-06T06:26:38;99545.53;;;10.20;48.93
40574;BME280;26283;49.020;8.644;2023-04-06T06:29:04;99544.72;;;10.20;49.03
40574;BME280;26283;49.020;8.644;2023-04-06T06:31:31;99548.44;;;10.19;49.04
40574;BME280;26283;49.020;8.644;2023-04-06T06:33:56;99545.75;;;10.19;49.06
40574;BME280;26283;49.020;8.644;2023-04-06T06:36:21;99548.66;;;10.17;49.06
40574;BME280;26283;49.020;8.644;2023-04-06T06:38:47;99551.13;;;10.19;49.03
40574;BME280;26283;49.020;8.644;2023-04-06T06:41:12;99544.06;;;10.18;49.04
40574;BME280;26283;49.020;8.644;2023-04-06T06:43:38;99539.50;;;10.18;49.13
40574;BME280;26283;49.020;8.644;2023-04-06T06:46:04;99546.59;;;10.19;49.12
40574;BME280;26283;49.020;8.644;2023-04-06T06:48:29;99547.59;;;10.18;49.12
40574;BME280;26283;49.020;8.644;2023-04-06T06:50:56;99540.56;;;10.17;49.23
40574;BME280;26283;49.020;8.644;2023-04-06T06:53:21;99550.28;;;10.18;49.29
40574;BME280;26283;49.020;8.644;2023-04-06T06:55:47;99550.28;;;10.18;49.31
40574;BME280;26283;49.020;8.644;2023-04-06T06:58:14;99551.97;;;10.19;49.33
40574;BME280;26283;49.020;8.644;2023-04-06T07:00:39;99543.87;;;10.19;49.45
40574;BME280;26283;49.020;8.644;2023-04-06T07:03:05;99554.66;;;10.19;49.40
40574;BME280;26283;49.020;8.644;2023-04-06T07:05:30;99543.87;;;10.19;49.27
40574;BME280;26283;49.020;8.644;2023-04-06T07:07:56;99542.84;;;10.20;49.26
40574;BME280;26283;49.020;8.644;2023-04-06T07:10:22;99537.47;;;10.20;49.21
40574;BME280;26283;49.020;8.644;2023-04-06T07:12:47;99542.84;;;10.20;49.20
40574;BME280;26283;49.020;8.644;2023-04-06T07:15:13;99535.41;;;10.22;49.37
40574;BME280;26283;49.020;8.644;2023-04-06T07:17:39;99531.88;;;10.22;49.37
40574;BME280;26283;49.020;8.644;2023-04-06T07:20:06;99542.44;;;10.23;49.28
40574;BME280;26283;49.020;8.644;2023-04-06T07:22:32;99536.84;;;10.25;49.34
40574;BME280;26283;49.020;8.644;2023-04-06T07:24:57;99536.84;;;10.25;49.39
40574;BME280;26283;49.020;8.644;2023-04-06T07:27:23;99542.03;;;10.26;49.33
40574;BME280;26283;49.020;8.644;2023-04-06T07:29:48;99534.78;;;10.27;49.40
40574;BME280;26283;49.020;8.644;2023-04-06T07:32:13;99538.28;;;10.27;49.43
40574;BME280;26283;49.020;8.644;2023-04-06T07:34:39;99540.78;;;10.29;49.49
40574;BME280;26283;49.020;8.644;2023-04-06T07:37:05;99536.22;;;10.29;49.40
40574;BME280;26283;49.020;8.644;2023-04-06T07:39:30;99528.97;;;10.30;49.54
40574;BME280;26283;49.020;8.644;2023-04-06T07:41:56;99527.72;;;10.33;49.49
40574;BME280;26283;49.020;8.644;2023-04-06T07:44:21;99553.41;;;10.35;50.77
40574;BME280;26283;49.020;8.644;2023-04-06T07:46:47;99553.38;;;10.42;50.75
40574;BME280;26283;49.020;8.644;2023-04-06T07:49:12;99545.50;;;10.47;50.69
40574;BME280;26283;49.020;8.644;2023-04-06T07:51:38;99548.00;;;10.48;50.69
40574;BME280;26283;49.020;8.644;2023-04-06T07:54:05;99548.41;;;10.52;50.71
40574;BME280;26283;49.020;8.644;2023-04-06T07:56:31;99548.41;;;10.52;50.72
40574;BME280;26283;49.020;8.644;2023-04-06T07:58:56;99548.41;;;10.52;50.75
40574;BME280;26283;49.020;8.644;2023-04-06T08:01:23;99551.50;;;10.55;50.77
40574;BME280;26283;49.020;8.644;2023-04-06T08:03:49;99551.09;;;10.58;50.80
40574;BME280;26283;49.020;8.644;2023-04-06T08:06:15;99546.53;;;10.59;50.82
40574;BME280;26283;49.020;8.644;2023-04-06T08:08:42;99542.78;;;10.60;50.83
40574;BME280;26283;49.020;8.644;2023-04-06T08:11:07;99544.22;;;10.62;50.86
40574;BME280;26283;49.020;8.644;2023-04-06T08:13:33;99546.69;;;10.64;50.87
40574;BME280;26283;49.020;8.644;2023-04-06T08:15:59;99553.53;;;10.67;50.89
40574;BME280;26283;49.020;8.644;2023-04-06T08:18:25;99544.19;;;10.69;50.89
40574;BME280;26283;49.020;8.644;2023-04-06T08:20:51;99543.16;;;10.70;50.91
40574;BME280;26283;49.020;8.644;2023-04-06T08:23:16;99536.72;;;10.71;50.94
40574;BME280;26283;49.020;8.644;2023-04-06T08:25:43;99534.66;;;10.73;50.96
40574;BME280;26283;49.020;8.644;2023-04-06T08:28:08;99531.75;;;10.75;50.97
40574;BME280;26283;49.020;8.644;2023-04-06T08:30:34;99532.34;;;10.77;50.97
40574;BME280;26283;49.020;8.644;2023-04-06T08:33:00;99532.97;;;10.79;50.96
40574;BME280;26283;49.020;8.644;2023-04-06T08:35:27;99530.91;;;10.81;50.93
40574;BME280;26283;49.020;8.644;2023-04-06T08:37:52;99535.00;;;10.83;50.92
40574;BME280;26283;49.020;8.644;2023-04-06T08:40:18;99532.09;;;10.85;50.92
40574;BME280;26283;49.020;8.644;2023-04-06T08:42:50;99530.84;;;10.87;50.94
40574;BME280;26283;49.020;8.644;2023-04-06T08:45:17;99526.06;;;10.89;50.87
40574;BME280;26283;49.020;8.644;2023-04-06T08:47:43;99534.78;;;10.91;50.89
40574;BME280;26283;49.020;8.644;2023-04-06T08:50:09;99536.22;;;10.94;50.88
40574;BME280;26283;49.020;8.644;2023-04-06T08:52:36;99527.91;;;10.95;50.86
40574;BME280;26283;49.020;8.644;2023-04-06T08:55:03;99537.25;;;10.99;50.92
40574;BME280;26283;49.020;8.644;2023-04-06T08:57:30;99529.78;;;11.02;51.02
40574;BME280;26283;49.020;8.644;2023-04-06T08:59:56;99538.22;;;11.05;51.04
40574;BME280;26283;49.020;8.644;2023-04-06T09:02:22;99536.97;;;11.08;51.10
40574;BME280;26283;49.020;8.644;2023-04-06T09:04:52;99540.28;;;11.10;51.10
40574;BME280;26283;49.020;8.644;2023-04-06T09:07:18;99522.84;;;11.12;51.17
40574;BME280;26283;49.020;8.644;2023-04-06T09:09:43;99526.16;;;11.14;51.30
40574;BME280;26283;49.020;8.644;2023-04-06T09:14:47;99526.34;;;11.19;51.30
40574;BME280;26283;49.020;8.644;2023-04-06T09:17:29;99530.50;;;11.22;51.41
40574;BME280;26283;49.020;8.644;2023-04-06T09:19:56;99530.88;;;11.25;51.35
40574;BME280;26283;49.020;8.644;2023-04-06T09:22:22;99526.91;;;11.28;51.39
40574;BME280;26283;49.020;8.644;2023-04-06T09:24:53;99525.66;;;11.30;51.35
40574;BME280;26283;49.020;8.644;2023-04-06T09:27:30;99524.38;;;11.33;51.33
40574;BME280;26283;49.020;8.644;2023-04-06T09:30:07;99523.97;;;11.36;51.27
40574;BME280;26283;49.020;8.644;2023-04-06T09:32:47;99523.53;;;11.39;51.24
40574;BME280;26283;49.020;8.644;2023-04-06T09:35:13;99516.06;;;11.41;51.07
40574;BME280;26283;49.020;8.644;2023-04-06T09:37:38;99519.13;;;11.45;51.10
40574;BME280;26283;49.020;8.644;2023-04-06T09:40:07;99514.09;;;11.48;50.98
40574;BME280;26283;49.020;8.644;2023-04-06T09:42:34;99520.13;;;11.50;50.96
40574;BME280;26283;49.020;8.644;2023-04-06T09:45:00;99519.69;;;11.53;50.91
40574;BME280;26283;49.020;8.644;2023-04-06T09:47:26;99513.03;;;11.56;50.76
40574;BME280;26283;49.020;8.644;2023-04-06T09:49:56;99508.03;;;11.59;50.71
40574;BME280;26283;49.020;8.644;2023-04-06T09:52:36;99513.81;;;11.63;50.71
40574;BME280;26283;49.020;8.644;2023-04-06T09:55:04;99511.50;;;11.66;50.66
40574;BME280;26283;49.020;8.644;2023-04-06T09:57:47;99501.06;;;11.70;50.68
40574;BME280;26283;49.020;8.644;2023-04-06T10:00:17;99504.16;;;11.74;50.61
40574;BME280;26283;49.020;8.644;2023-04-06T10:06:04;99509.34;;;11.82;50.34
40574;BME280;26283;49.020;8.644;2023-04-06T10:08:27;99508.69;;;11.86;50.00
40574;BME280;26283;49.020;8.644;2023-04-06T10:10:54;99500.13;;;11.89;50.02
40574;BME280;26283;49.020;8.644;2023-04-06T10:13:20;99511.28;;;11.93;49.99
40574;BME280;26283;49.020;8.644;2023-04-06T10:15:46;99510.63;;;11.97;49.97
40574;BME280;26283;49.020;8.644;2023-04-06T10:18:12;99508.53;;;11.99;49.91
40574;BME280;26283;49.020;8.644;2023-04-06T10:20:50;99502.69;;;12.02;49.83
40574;BME280;26283;49.020;8.644;2023-04-06T10:26:04;99503.47;;;12.10;49.59
40574;BME280;26283;49.020;8.644;2023-04-06T10:28:33;99507.63;;;12.12;49.54
40574;BME280;26283;49.020;8.644;2023-04-06T10:31:01;99502.56;;;12.16;49.47
40574;BME280;26283;49.020;8.644;2023-04-06T10:33:27;99502.94;;;12.19;49.35
40574;BME280;26283;49.020;8.644;2023-04-06T10:35:53;99500.03;;;12.21;49.19
40574;BME280;26283;49.020;8.644;2023-04-06T10:38:19;99499.59;;;12.24;49.10
40574;BME280;26283;49.020;8.644;2023-04-06T10:40:47;99498.09;;;12.28;48.98
40574;BME280;26283;49.020;8.644;2023-04-06T10:43:19;99497.66;;;12.31;48.86
40574;BME280;26283;49.020;8.644;2023-04-06T10:45:54;99489.91;;;12.34;48.76
40574;BME280;26283;49.020;8.644;2023-04-06T10:48:20;99493.81;;;12.39;48.63
40574;BME280;26283;49.020;8.644;2023-04-06T10:50:52;99491.72;;;12.41;48.56
40574;BME280;26283;49.020;8.644;2023-04-06T10:53:25;99486.91;;;12.43;48.49
40574;BME280;26283;49.020;8.644;2023-04-06T10:55:52;99488.56;;;12.44;48.43
40574;BME280;26283;49.020;8.644;2023-04-06T10:58:18;99492.47;;;12.48;48.38
40574;BME280;26283;49.020;8.644;2023-04-06T11:00:48;99483.09;;;12.50;48.35
40574;BME280;26283;49.020;8.644;2023-04-06T11:03:14;99485.56;;;12.52;48.25
40574;BME280;26283;49.020;8.644;2023-04-06T11:05:48;99484.28;;;12.54;48.14
40574;BME280;26283;49.020;8.644;2023-04-06T11:08:28;99475.13;;;12.55;48.12
40574;BME280;26283;49.020;8.644;2023-04-06T11:11:13;99475.72;;;12.57;48.05
40574;BME280;26283;49.020;8.644;2023-04-06T11:16:40;99469.63;;;12.62;47.93
40574;BME280;26283;49.020;8.644;2023-04-06T11:19:05;99470.22;;;12.64;47.89
40574;BME280;26283;49.020;8.644;2023-04-06T11:21:32;99466.47;;;12.65;47.88
40574;BME280;26283;49.020;8.644;2023-04-06T11:24:12;99468.72;;;12.68;47.83
40574;BME280;26283;49.020;8.644;2023-04-06T11:26:45;99460.37;;;12.69;47.77
40574;BME280;26283;49.020;8.644;2023-04-06T11:29:12;99466.41;;;12.72;47.75
40574;BME280;26283;49.020;8.644;2023-04-06T11:31:42;99458.88;;;12.74;47.72
40574;BME280;26283;49.020;8.644;2023-04-06T11:34:11;99450.56;;;12.75;47.66
40574;BME280;26283;49.020;8.644;2023-04-06T11:36:39;99453.25;;;12.75;47.66
40574;BME280;26283;49.020;8.644;2023-04-06T11:39:06;99448.19;;;12.79;47.60
40574;BME280;26283;49.020;8.644;2023-04-06T11:41:32;99452.78;;;12.78;47.57
40574;BME280;26283;49.020;8.644;2023-04-06T11:44:01;99451.25;;;12.82;47.53
40574;BME280;26283;49.020;8.644;2023-04-06T11:46:27;99449.38;;;12.83;47.49
40574;BME280;26283;49.020;8.644;2023-04-06T11:48:58;99446.44;;;12.84;47.47
40574;BME280;26283;49.020;8.644;2023-04-06T11:51:23;99438.13;;;12.86;47.43
40574;BME280;26283;49.020;8.644;2023-04-06T11:53:49;99448.72;;;12.87;47.43
40574;BME280;26283;49.020;8.644;2023-04-06T11:56:28;99442.25;;;12.88;47.38
40574;BME280;26283;49.020;8.644;2023-04-06T11:58:55;99437.44;;;12.90;47.36
40574;BME280;26283;49.020;8.644;2023-04-06T12:01:21;99439.09;;;12.91;47.33
40574;BME280;26283;49.020;8.644;2023-04-06T12:03:46;99438.63;;;12.94;47.36
40574;BME280;26283;49.020;8.644;2023-04-06T12:06:12;99437.56;;;12.95;47.32
40574;BME280;26283;49.020;8.644;2023-04-06T12:08:37;99433.81;;;12.96;47.26
40574;BME280;26283;49.020;8.644;2023-04-06T12:11:02;99436.28;;;12.98;47.22
40574;BME280;26283;49.020;8.644;2023-04-06T12:13:28;99431.72;;;12.98;47.24
40574;BME280;26283;49.020;8.644;2023-04-06T12:15:53;99431.22;;;13.01;47.22
40574;BME280;26283;49.020;8.644;2023-04-06T12:18:19;99419.56;;;13.01;47.20
40574;BME280;26283;49.020;8.644;2023-04-06T12:20:44;99422.88;;;13.03;47.19
40574;BME280;26283;49.020;8.644;2023-04-06T12:23:10;99426.19;;;13.05;47.17
40574;BME280;26283;49.020;8.644;2023-04-06T12:25:35;99425.12;;;13.06;47.15
40574;BME280;26283;49.020;8.644;2023-04-06T12:28:01;99416.78;;;13.08;47.11
40574;BME280;26283;49.020;8.644;2023-04-06T12:30:26;99421.13;;;13.09;47.11
40574;BME280;26283;49.020;8.644;2023-04-06T12:33:12;99414.69;;;13.10;47.10
40574;BME280;26283;49.020;8.644;2023-04-06T12:35:37;99425.50;;;13.10;47.07
40574;BME280;26283;49.020;8.644;2023-04-06T12:38:03;99417.97;;;13.12;47.09
40574;BME280;26283;49.020;8.644;2023-04-06T12:40:29;99414.22;;;13.13;47.09
40574;BME280;26283;49.020;8.644;2023-04-06T12:42:54;99409.62;;;13.13;47.08
40574;BME280;26283;49.020;8.644;2023-04-06T12:45:20;99404.00;;;13.15;47.05
40574;BME280;26283;49.020;8.644;2023-04-06T12:47:45;99407.31;;;13.17;47.06
40574;BME280;26283;49.020;8.644;2023-04-06T12:50:11;99414.37;;;13.18;47.04
40574;BME280;26283;49.020;8.644;2023-04-06T12:52:36;99411.44;;;13.19;47.08
40574;BME280;26283;49.020;8.644;2023-04-06T12:55:02;99397.66;;;13.21;47.08
40574;BME280;26283;49.020;8.644;2023-04-06T12:57:28;99399.31;;;13.22;47.04
40574;BME280;26283;49.020;8.644;2023-04-06T12:59:53;99395.53;;;13.23;47.03
40574;BME280;26283;49.020;8.644;2023-04-06T13:02:19;99397.19;;;13.24;47.05
40574;BME280;26283;49.020;8.644;2023-04-06T13:04:48;99399.69;;;13.25;47.03
40574;BME280;26283;49.020;8.644;2023-04-06T13:07:14;99400.50;;;13.26;47.01